Weather at Carroll County Regional Jack B Poage Field

Public forecast

Using degrees Fahrenheit for public forecast. Weather courtesy of forecast.io.

Current aviation weather report (METAR) for Carroll County Regional Jack B Poage Field

Retrieved 2021/03/04 01:35 UTC (47 minutes ago):

KDMW 040135Z AUTO 26005KT 10SM CLR 11/M03 A2987 RMK AO2

Closest aviation forecast (TAF) to Carroll County Regional Jack B Poage Field

Closest forecast is Baltimore/Washington International Thurgood Marshall Airport, 30.4 nm (56.3 km) SSE. Retrieved 2021-03-04 00:42 UTC (2 hours ago):

TAF KBWI 032340Z 0400/0506 23005KT P6SM SKC FM040900 32007KT P6SM FEW070 FM041400 32011G19KT P6SM FEW040 FM041700 32015G25KT P6SM SCT045 FM050400 32011G21KT P6SM FEW250